ITY1386 LIMJ-LIRF
Flight info
| Callsign | ITY1386 |
|---|---|
| Flight time | 0h 44m |
| Altitude | 35000 |
| Route | UNITA DCT KONER DCT BAKRO DCT ELB/N0434F340 DCT ELKAP |
| Aircraft | A319/M-SDE1FGIJ1RWYZ/LB1D1G1 |
Departure
| Time | 2026-05-07 13:04 |
|---|---|
| Airport | Genoa Cristoforo Colombo Airport (LIMJ) |
Arrival
| Time | 2026-05-07 13:48 |
|---|---|
| Airport | Rome–Fiumicino Leonardo da Vinci International Airport (LIRF) |
| Time | Latitude | Longitude | Altitude | Speed | Heading |
|---|---|---|---|---|---|
| 2026-05-07 12:36 | 44.41420 | 8.85030 | 29 ft | 0 kts | 16° |
| 2026-05-07 12:54 | 44.41416 | 8.85029 | 29 ft | 2 kts | 16° |
| 2026-05-07 12:54 | 44.41402 | 8.85023 | 29 ft | 2 kts | 16° |
| 2026-05-07 12:54 | 44.41388 | 8.85017 | 29 ft | 2 kts | 16° |
| 2026-05-07 12:55 | 44.41375 | 8.85012 | 29 ft | 0 kts | 16° |
| 2026-05-07 12:55 | 44.41363 | 8.85009 | 29 ft | 2 kts | 353° |
| 2026-05-07 12:55 | 44.41350 | 8.85016 | 28 ft | 2 kts | 324° |
| 2026-05-07 12:55 | 44.41340 | 8.85031 | 28 ft | 2 kts | 295° |
| 2026-05-07 12:56 | 44.41337 | 8.85041 | 28 ft | 1 kts | 279° |
| 2026-05-07 12:56 | 44.41336 | 8.85047 | 28 ft | 0 kts | 284° |
| 2026-05-07 12:56 | 44.41336 | 8.85046 | 28 ft | 0 kts | 284° |
| 2026-05-07 12:58 | 44.41338 | 8.85038 | 28 ft | 1 kts | 284° |
| 2026-05-07 12:59 | 44.41342 | 8.85015 | 28 ft | 3 kts | 284° |
| 2026-05-07 12:59 | 44.41341 | 8.84960 | 29 ft | 8 kts | 220° |
| 2026-05-07 12:59 | 44.41273 | 8.84931 | 27 ft | 11 kts | 195° |
| 2026-05-07 12:59 | 44.41187 | 8.84898 | 26 ft | 13 kts | 196° |
| 2026-05-07 13:00 | 44.41166 | 8.84889 | 25 ft | 0 kts | 196° |
| 2026-05-07 13:02 | 44.41157 | 8.84885 | 25 ft | 3 kts | 196° |
| 2026-05-07 13:03 | 44.41127 | 8.84870 | 24 ft | 5 kts | 208° |
| 2026-05-07 13:03 | 44.41087 | 8.84823 | 23 ft | 9 kts | 220° |
| 2026-05-07 13:03 | 44.41081 | 8.84762 | 23 ft | 0 kts | 290° |
| 2026-05-07 13:03 | 44.41082 | 8.84758 | 23 ft | 8 kts | 290° |
| 2026-05-07 13:04 | 44.41179 | 8.84266 | 19 ft | 92 kts | 284° |
| 2026-05-07 13:04 | 44.41407 | 8.83102 | 25 ft | 156 kts | 284° |
| 2026-05-07 13:04 | 44.41699 | 8.81550 | 496 ft | 169 kts | 283° |
| 2026-05-07 13:04 | 44.41948 | 8.79972 | 1257 ft | 168 kts | 267° |
| 2026-05-07 13:05 | 44.41510 | 8.78581 | 1955 ft | 165 kts | 217° |
| 2026-05-07 13:05 | 44.40400 | 8.78104 | 2477 ft | 177 kts | 175° |
| 2026-05-07 13:05 | 44.39235 | 8.78763 | 2941 ft | 195 kts | 149° |
| 2026-05-07 13:05 | 44.38047 | 8.79674 | 3705 ft | 196 kts | 153° |
| 2026-05-07 13:06 | 44.36866 | 8.80581 | 4453 ft | 199 kts | 152° |
| 2026-05-07 13:06 | 44.35630 | 8.81425 | 5187 ft | 201 kts | 166° |
| 2026-05-07 13:06 | 44.34248 | 8.81809 | 5775 ft | 212 kts | 166° |
| 2026-05-07 13:06 | 44.32867 | 8.82820 | 6179 ft | 238 kts | 146° |
| 2026-05-07 13:07 | 44.31479 | 8.84290 | 6746 ft | 256 kts | 144° |
| 2026-05-07 13:07 | 44.30015 | 8.85797 | 7303 ft | 274 kts | 147° |
| 2026-05-07 13:07 | 44.28434 | 8.87315 | 8072 ft | 282 kts | 148° |
| 2026-05-07 13:07 | 44.26781 | 8.88830 | 8953 ft | 286 kts | 149° |
| 2026-05-07 13:08 | 44.25123 | 8.90303 | 9806 ft | 290 kts | 150° |
| 2026-05-07 13:08 | 44.23402 | 8.91804 | 10575 ft | 298 kts | 150° |
| 2026-05-07 13:08 | 44.21588 | 8.93363 | 11064 ft | 315 kts | 150° |
| 2026-05-07 13:08 | 44.19674 | 8.94996 | 11675 ft | 327 kts | 150° |
| 2026-05-07 13:09 | 44.17743 | 8.96640 | 12457 ft | 332 kts | 150° |
| 2026-05-07 13:09 | 44.15758 | 8.98327 | 13267 ft | 336 kts | 150° |
| 2026-05-07 13:09 | 44.13751 | 9.00031 | 14027 ft | 340 kts | 150° |
| 2026-05-07 13:09 | 44.11734 | 9.01743 | 14762 ft | 345 kts | 150° |
| 2026-05-07 13:10 | 44.09676 | 9.03487 | 15494 ft | 349 kts | 150° |
| 2026-05-07 13:10 | 44.07603 | 9.05241 | 16215 ft | 353 kts | 150° |
| 2026-05-07 13:10 | 44.05500 | 9.07017 | 16903 ft | 358 kts | 151° |
| 2026-05-07 13:10 | 44.03376 | 9.08811 | 17570 ft | 362 kts | 151° |
| 2026-05-07 13:11 | 44.01220 | 9.10628 | 18235 ft | 366 kts | 151° |
| 2026-05-07 13:11 | 43.99063 | 9.12446 | 18886 ft | 369 kts | 152° |
| 2026-05-07 13:11 | 43.96857 | 9.14304 | 19551 ft | 372 kts | 152° |
| 2026-05-07 13:11 | 43.94635 | 9.16175 | 20216 ft | 375 kts | 152° |
| 2026-05-07 13:12 | 43.92416 | 9.18039 | 20844 ft | 377 kts | 152° |
| 2026-05-07 13:12 | 43.90169 | 9.19924 | 21464 ft | 380 kts | 153° |
| 2026-05-07 13:12 | 43.87890 | 9.21830 | 22068 ft | 383 kts | 153° |
| 2026-05-07 13:12 | 43.85629 | 9.23804 | 22660 ft | 388 kts | 149° |
| 2026-05-07 13:13 | 43.83447 | 9.26037 | 23258 ft | 392 kts | 147° |
| 2026-05-07 13:13 | 43.81288 | 9.28347 | 23798 ft | 396 kts | 147° |
| 2026-05-07 13:13 | 43.79131 | 9.30657 | 24301 ft | 399 kts | 147° |
| 2026-05-07 13:13 | 43.76923 | 9.33005 | 24803 ft | 403 kts | 147° |
| 2026-05-07 13:14 | 43.74684 | 9.35369 | 25269 ft | 407 kts | 148° |
| 2026-05-07 13:14 | 43.72427 | 9.37742 | 25737 ft | 411 kts | 148° |
| 2026-05-07 13:14 | 43.70155 | 9.40122 | 26196 ft | 413 kts | 148° |
| 2026-05-07 13:14 | 43.67861 | 9.42522 | 26715 ft | 414 kts | 148° |
| 2026-05-07 13:15 | 43.65566 | 9.44921 | 27310 ft | 413 kts | 149° |
| 2026-05-07 13:15 | 43.63294 | 9.47294 | 27916 ft | 411 kts | 149° |
| 2026-05-07 13:15 | 43.61021 | 9.49662 | 28470 ft | 411 kts | 149° |
| 2026-05-07 13:15 | 43.58743 | 9.52030 | 28995 ft | 410 kts | 150° |
| 2026-05-07 13:16 | 43.56464 | 9.54397 | 29504 ft | 410 kts | 150° |
| 2026-05-07 13:16 | 43.54189 | 9.56757 | 29930 ft | 412 kts | 150° |
| 2026-05-07 13:16 | 43.51911 | 9.59117 | 30353 ft | 414 kts | 150° |
| 2026-05-07 13:16 | 43.49614 | 9.61492 | 30772 ft | 416 kts | 150° |
| 2026-05-07 13:17 | 43.47287 | 9.63897 | 30954 ft | 418 kts | 150° |
| 2026-05-07 13:17 | 43.44967 | 9.66294 | 30954 ft | 419 kts | 151° |
| 2026-05-07 13:17 | 43.40338 | 9.71104 | 30961 ft | 418 kts | 151° |
| 2026-05-07 13:18 | 43.35690 | 9.75907 | 30966 ft | 419 kts | 151° |
| 2026-05-07 13:18 | 43.31068 | 9.80664 | 30970 ft | 419 kts | 151° |
| 2026-05-07 13:19 | 43.26399 | 9.85457 | 30967 ft | 419 kts | 151° |
| 2026-05-07 13:19 | 43.21743 | 9.90228 | 30962 ft | 418 kts | 152° |
| 2026-05-07 13:20 | 43.17090 | 9.94983 | 30965 ft | 419 kts | 152° |
| 2026-05-07 13:20 | 43.12444 | 9.99724 | 30969 ft | 418 kts | 152° |
| 2026-05-07 13:21 | 43.07775 | 10.04475 | 30965 ft | 419 kts | 152° |
| 2026-05-07 13:21 | 43.03100 | 10.09225 | 30969 ft | 419 kts | 152° |
| 2026-05-07 13:22 | 42.98430 | 10.13965 | 30959 ft | 418 kts | 152° |
| 2026-05-07 13:22 | 42.93925 | 10.19041 | 30933 ft | 431 kts | 137° |
| 2026-05-07 13:23 | 42.92184 | 10.22349 | 30676 ft | 438 kts | 129° |
| 2026-05-07 13:23 | 42.90581 | 10.25879 | 30413 ft | 437 kts | 127° |
| 2026-05-07 13:23 | 42.89007 | 10.29405 | 30151 ft | 435 kts | 128° |
| 2026-05-07 13:23 | 42.87427 | 10.32895 | 29893 ft | 431 kts | 128° |
| 2026-05-07 13:24 | 42.85848 | 10.36334 | 29633 ft | 429 kts | 128° |
| 2026-05-07 13:24 | 42.84269 | 10.39749 | 29378 ft | 429 kts | 128° |
| 2026-05-07 13:24 | 42.82679 | 10.43168 | 29121 ft | 428 kts | 128° |
| 2026-05-07 13:24 | 42.81090 | 10.46579 | 28860 ft | 428 kts | 128° |
| 2026-05-07 13:25 | 42.79497 | 10.49994 | 28605 ft | 427 kts | 128° |
| 2026-05-07 13:25 | 42.77921 | 10.53369 | 28348 ft | 426 kts | 128° |
| 2026-05-07 13:25 | 42.76321 | 10.56792 | 28087 ft | 426 kts | 128° |
| 2026-05-07 13:25 | 42.74751 | 10.60147 | 27828 ft | 426 kts | 128° |
| 2026-05-07 13:26 | 42.73161 | 10.63540 | 27567 ft | 426 kts | 128° |
| 2026-05-07 13:26 | 42.71559 | 10.66957 | 27303 ft | 426 kts | 128° |
| 2026-05-07 13:26 | 42.69991 | 10.70312 | 27006 ft | 426 kts | 128° |
| 2026-05-07 13:26 | 42.68384 | 10.73742 | 26647 ft | 427 kts | 128° |
| 2026-05-07 13:27 | 42.66791 | 10.77135 | 26193 ft | 427 kts | 128° |
| 2026-05-07 13:27 | 42.65213 | 10.80486 | 25672 ft | 427 kts | 128° |
| 2026-05-07 13:27 | 42.63634 | 10.83839 | 25274 ft | 420 kts | 128° |
| 2026-05-07 13:27 | 42.62064 | 10.87172 | 24874 ft | 415 kts | 128° |
| 2026-05-07 13:28 | 42.60522 | 10.90434 | 24464 ft | 410 kts | 128° |
| 2026-05-07 13:28 | 42.59002 | 10.93650 | 24063 ft | 405 kts | 128° |
| 2026-05-07 13:28 | 42.57486 | 10.96851 | 23664 ft | 401 kts | 128° |
| 2026-05-07 13:28 | 42.55983 | 11.00017 | 23260 ft | 396 kts | 128° |
| 2026-05-07 13:29 | 42.54516 | 11.03103 | 22879 ft | 393 kts | 128° |
| 2026-05-07 13:29 | 42.53050 | 11.06187 | 22471 ft | 390 kts | 128° |
| 2026-05-07 13:29 | 42.51586 | 11.09267 | 22075 ft | 386 kts | 127° |
| 2026-05-07 13:29 | 42.50149 | 11.12285 | 21686 ft | 383 kts | 127° |
| 2026-05-07 13:30 | 42.48699 | 11.15327 | 21282 ft | 381 kts | 127° |
| 2026-05-07 13:30 | 42.47267 | 11.18329 | 20889 ft | 378 kts | 127° |
| 2026-05-07 13:30 | 42.45852 | 11.21287 | 20503 ft | 376 kts | 127° |
| 2026-05-07 13:30 | 42.44597 | 11.24363 | 20085 ft | 378 kts | 117° |
| 2026-05-07 13:31 | 42.43750 | 11.27759 | 19698 ft | 380 kts | 106° |
| 2026-05-07 13:31 | 42.43284 | 11.31232 | 19329 ft | 379 kts | 101° |
| 2026-05-07 13:31 | 42.42922 | 11.34736 | 18937 ft | 377 kts | 100° |
| 2026-05-07 13:31 | 42.42568 | 11.38244 | 18552 ft | 375 kts | 100° |
| 2026-05-07 13:32 | 42.42204 | 11.41707 | 18169 ft | 372 kts | 100° |
| 2026-05-07 13:32 | 42.41828 | 11.45143 | 17773 ft | 370 kts | 101° |
| 2026-05-07 13:32 | 42.41439 | 11.48596 | 17382 ft | 368 kts | 101° |
| 2026-05-07 13:32 | 42.41058 | 11.51956 | 17062 ft | 364 kts | 101° |
| 2026-05-07 13:33 | 42.40636 | 11.55243 | 16988 ft | 349 kts | 108° |
| 2026-05-07 13:33 | 42.39558 | 11.58024 | 16893 ft | 325 kts | 138° |
| 2026-05-07 13:33 | 42.37735 | 11.59727 | 16747 ft | 312 kts | 162° |
| 2026-05-07 13:33 | 42.35710 | 11.60633 | 16382 ft | 309 kts | 167° |
| 2026-05-07 13:34 | 42.33668 | 11.61480 | 16034 ft | 307 kts | 166° |
| 2026-05-07 13:34 | 42.29619 | 11.63273 | 15409 ft | 302 kts | 165° |
| 2026-05-07 13:34 | 42.27656 | 11.64181 | 15161 ft | 297 kts | 165° |
| 2026-05-07 13:35 | 42.25729 | 11.65076 | 14898 ft | 293 kts | 166° |
| 2026-05-07 13:35 | 42.23813 | 11.65922 | 14670 ft | 286 kts | 166° |
| 2026-05-07 13:35 | 42.21938 | 11.66735 | 14507 ft | 282 kts | 166° |
| 2026-05-07 13:35 | 42.20070 | 11.67537 | 14266 ft | 281 kts | 166° |
| 2026-05-07 13:36 | 42.18202 | 11.68340 | 13992 ft | 279 kts | 166° |
| 2026-05-07 13:36 | 42.16370 | 11.69127 | 13720 ft | 278 kts | 166° |
| 2026-05-07 13:36 | 42.14539 | 11.69913 | 13418 ft | 277 kts | 166° |
| 2026-05-07 13:36 | 42.12701 | 11.70701 | 13118 ft | 275 kts | 166° |
| 2026-05-07 13:37 | 42.10899 | 11.71478 | 12832 ft | 272 kts | 166° |
| 2026-05-07 13:37 | 42.09098 | 11.72250 | 12550 ft | 269 kts | 166° |
| 2026-05-07 13:37 | 42.07359 | 11.73080 | 12370 ft | 264 kts | 154° |
| 2026-05-07 13:37 | 42.06047 | 11.74727 | 12096 ft | 267 kts | 121° |
| 2026-05-07 13:38 | 42.05542 | 11.77131 | 11799 ft | 269 kts | 90° |
| 2026-05-07 13:38 | 42.05916 | 11.79558 | 11537 ft | 266 kts | 72° |
| 2026-05-07 13:38 | 42.06514 | 11.81890 | 11271 ft | 264 kts | 71° |
| 2026-05-07 13:38 | 42.07111 | 11.84222 | 11019 ft | 262 kts | 72° |
| 2026-05-07 13:39 | 42.07900 | 11.86438 | 10936 ft | 266 kts | 48° |
| 2026-05-07 13:39 | 42.09376 | 11.87847 | 10939 ft | 261 kts | 21° |
| 2026-05-07 13:39 | 42.11024 | 11.88821 | 10677 ft | 261 kts | 33° |
| 2026-05-07 13:39 | 42.12211 | 11.90629 | 10172 ft | 268 kts | 69° |
| 2026-05-07 13:40 | 42.12470 | 11.93076 | 9834 ft | 261 kts | 94° |
| 2026-05-07 13:40 | 42.12371 | 11.95488 | 9299 ft | 260 kts | 94° |
| 2026-05-07 13:40 | 42.12276 | 11.97901 | 8701 ft | 259 kts | 94° |
| 2026-05-07 13:40 | 42.12181 | 12.00287 | 8130 ft | 257 kts | 94° |
| 2026-05-07 13:41 | 42.12085 | 12.02683 | 7571 ft | 255 kts | 94° |
| 2026-05-07 13:41 | 42.11989 | 12.05033 | 7024 ft | 252 kts | 93° |
| 2026-05-07 13:41 | 42.12120 | 12.07348 | 6490 ft | 250 kts | 78° |
| 2026-05-07 13:41 | 42.12487 | 12.09588 | 5970 ft | 246 kts | 84° |
| 2026-05-07 13:42 | 42.12209 | 12.11810 | 5422 ft | 241 kts | 123° |
| 2026-05-07 13:42 | 42.11050 | 12.13249 | 5207 ft | 223 kts | 150° |
| 2026-05-07 13:42 | 42.09703 | 12.14182 | 4977 ft | 210 kts | 156° |
| 2026-05-07 13:42 | 42.08399 | 12.14932 | 4759 ft | 200 kts | 156° |
| 2026-05-07 13:43 | 42.07173 | 12.15788 | 4509 ft | 197 kts | 146° |
| 2026-05-07 13:43 | 42.06016 | 12.16759 | 4252 ft | 198 kts | 150° |
| 2026-05-07 13:43 | 42.04771 | 12.17557 | 3987 ft | 198 kts | 157° |
| 2026-05-07 13:43 | 42.03480 | 12.18203 | 3728 ft | 197 kts | 160° |
| 2026-05-07 13:44 | 42.02171 | 12.18788 | 3474 ft | 197 kts | 161° |
| 2026-05-07 13:44 | 42.00872 | 12.19341 | 3216 ft | 197 kts | 162° |
| 2026-05-07 13:44 | 41.99560 | 12.19891 | 2960 ft | 197 kts | 162° |
| 2026-05-07 13:44 | 41.98253 | 12.20436 | 2720 ft | 196 kts | 162° |
| 2026-05-07 13:45 | 41.96975 | 12.20969 | 2534 ft | 188 kts | 162° |
| 2026-05-07 13:45 | 41.95734 | 12.21487 | 2275 ft | 186 kts | 162° |
| 2026-05-07 13:45 | 41.94523 | 12.21994 | 2023 ft | 181 kts | 162° |
| 2026-05-07 13:45 | 41.93358 | 12.22481 | 1794 ft | 168 kts | 161° |
| 2026-05-07 13:46 | 41.92268 | 12.22937 | 1555 ft | 158 kts | 162° |
| 2026-05-07 13:46 | 41.91254 | 12.23362 | 1339 ft | 150 kts | 162° |
| 2026-05-07 13:46 | 41.90286 | 12.23769 | 1142 ft | 145 kts | 162° |
| 2026-05-07 13:46 | 41.89328 | 12.24200 | 966 ft | 144 kts | 162° |
| 2026-05-07 13:47 | 41.88369 | 12.24585 | 783 ft | 143 kts | 165° |
| 2026-05-07 13:47 | 41.87415 | 12.24954 | 584 ft | 142 kts | 164° |
| 2026-05-07 13:47 | 41.86470 | 12.25347 | 418 ft | 142 kts | 163° |
| 2026-05-07 13:47 | 41.85530 | 12.25760 | 238 ft | 142 kts | 164° |
| 2026-05-07 13:48 | 41.84578 | 12.26160 | 63 ft | 141 kts | 165° |
| 2026-05-07 13:48 | 41.83675 | 12.26542 | 13 ft | 127 kts | 165° |
| 2026-05-07 13:48 | 41.82995 | 12.26818 | 12 ft | 77 kts | 161° |
| 2026-05-07 13:48 | 41.82635 | 12.26969 | 12 ft | 40 kts | 163° |
| 2026-05-07 13:49 | 41.82364 | 12.27083 | 9 ft | 41 kts | 162° |
| 2026-05-07 13:49 | 41.82091 | 12.27141 | 10 ft | 38 kts | 182° |
| 2026-05-07 13:49 | 41.81836 | 12.27072 | 11 ft | 35 kts | 193° |
| 2026-05-07 13:49 | 41.81600 | 12.27082 | 11 ft | 33 kts | 163° |
| 2026-05-07 13:50 | 41.81413 | 12.27157 | 11 ft | 27 kts | 164° |
| 2026-05-07 13:50 | 41.81235 | 12.27233 | 11 ft | 26 kts | 163° |
| 2026-05-07 13:50 | 41.81061 | 12.27307 | 11 ft | 25 kts | 159° |
| 2026-05-07 13:50 | 41.80888 | 12.27347 | 11 ft | 24 kts | 189° |
| 2026-05-07 13:51 | 41.80720 | 12.27306 | 11 ft | 24 kts | 194° |
| 2026-05-07 13:51 | 41.80630 | 12.27134 | 11 ft | 23 kts | 250° |
| 2026-05-07 13:51 | 41.80575 | 12.26935 | 11 ft | 22 kts | 250° |
| 2026-05-07 13:51 | 41.80519 | 12.26737 | 11 ft | 22 kts | 250° |
| 2026-05-07 13:52 | 41.80466 | 12.26544 | 14 ft | 20 kts | 249° |
| 2026-05-07 13:52 | 41.80416 | 12.26364 | 14 ft | 20 kts | 249° |
| 2026-05-07 13:52 | 41.80367 | 12.26188 | 17 ft | 19 kts | 250° |
| 2026-05-07 13:52 | 41.80296 | 12.26085 | 17 ft | 15 kts | 198° |
| 2026-05-07 13:53 | 41.80197 | 12.26025 | 17 ft | 16 kts | 205° |
| 2026-05-07 13:53 | 41.80093 | 12.25961 | 17 ft | 16 kts | 204° |
| 2026-05-07 13:53 | 41.79984 | 12.25892 | 17 ft | 17 kts | 205° |
| 2026-05-07 13:53 | 41.79876 | 12.25829 | 19 ft | 16 kts | 200° |
| 2026-05-07 13:54 | 41.79816 | 12.25922 | 20 ft | 14 kts | 114° |
| 2026-05-07 13:54 | 41.79773 | 12.26047 | 20 ft | 13 kts | 114° |
| 2026-05-07 13:54 | 41.79724 | 12.26092 | 20 ft | 9 kts | 203° |
| 2026-05-07 13:54 | 41.79660 | 12.26050 | 20 ft | 10 kts | 205° |
| 2026-05-07 13:55 | 41.79631 | 12.26024 | 20 ft | 1 kts | 283° |
| 2026-05-07 13:55 | 41.79635 | 12.26017 | 20 ft | 1 kts | 297° |
| 2026-05-07 13:55 | 41.79641 | 12.26001 | 21 ft | 2 kts | 298° |
| 2026-05-07 13:55 | 41.79651 | 12.25976 | 20 ft | 3 kts | 296° |
| 2026-05-07 13:56 | 41.79656 | 12.25961 | 20 ft | 0 kts | 294° |